sensor_id;sensor_type;location;lat;lon;timestamp;pressure;altitude;pressure_sealevel;temperature;humidity
56038;BME280;41907;47.848;9.000;2023-02-08T00:01:47;97426.66;;;-4.49;94.13
56038;BME280;41907;47.848;9.000;2023-02-08T00:04:12;97435.28;;;-4.48;94.01
56038;BME280;41907;47.848;9.000;2023-02-08T00:06:37;97431.69;;;-4.47;94.10
56038;BME280;41907;47.848;9.000;2023-02-08T00:09:02;97431.03;;;-4.50;93.55
56038;BME280;41907;47.848;9.000;2023-02-08T00:11:28;97432.03;;;-4.51;93.75
56038;BME280;41907;47.848;9.000;2023-02-08T00:13:53;97417.75;;;-4.55;93.76
56038;BME280;41907;47.848;9.000;2023-02-08T00:16:19;97421.16;;;-4.54;94.09
56038;BME280;41907;47.848;9.000;2023-02-08T00:18:44;97415.47;;;-4.58;93.66
56038;BME280;41907;47.848;9.000;2023-02-08T00:21:11;97419.06;;;-4.59;93.85
56038;BME280;41907;47.848;9.000;2023-02-08T00:23:37;97421.19;;;-4.62;93.91
56038;BME280;41907;47.848;9.000;2023-02-08T00:26:03;97418.88;;;-4.57;93.58
56038;BME280;41907;47.848;9.000;2023-02-08T00:28:28;97420.84;;;-4.59;93.77
56038;BME280;41907;47.848;9.000;2023-02-08T00:30:53;97415.69;;;-4.67;93.64
56038;BME280;41907;47.848;9.000;2023-02-08T00:33:19;97417.63;;;-4.69;94.06
56038;BME280;41907;47.848;9.000;2023-02-08T00:35:44;97417.00;;;-4.71;93.74
56038;BME280;41907;47.848;9.000;2023-02-08T00:38:10;97415.03;;;-4.69;93.75
56038;BME280;41907;47.848;9.000;2023-02-08T00:40:35;97401.38;;;-4.71;93.99
56038;BME280;41907;47.848;9.000;2023-02-08T00:43:01;97405.97;;;-4.73;93.72
56038;BME280;41907;47.848;9.000;2023-02-08T00:45:27;97394.91;;;-4.75;93.62
56038;BME280;41907;47.848;9.000;2023-02-08T00:47:52;97382.59;;;-4.81;94.24
56038;BME280;41907;47.848;9.000;2023-02-08T00:50:17;97383.09;;;-4.86;94.45
56038;BME280;41907;47.848;9.000;2023-02-08T00:52:43;97377.06;;;-4.87;93.93
56038;BME280;41907;47.848;9.000;2023-02-08T00:55:08;97387.78;;;-4.81;93.69
56038;BME280;41907;47.848;9.000;2023-02-08T00:57:34;97377.81;;;-4.78;92.94
56038;BME280;41907;47.848;9.000;2023-02-08T01:00:00;97381.78;;;-4.82;92.90
56038;BME280;41907;47.848;9.000;2023-02-08T01:02:26;97390.56;;;-4.83;92.90
56038;BME280;41907;47.848;9.000;2023-02-08T01:04:52;97379.34;;;-4.83;92.53
56038;BME280;41907;47.848;9.000;2023-02-08T01:07:17;97377.53;;;-4.83;91.90
56038;BME280;41907;47.848;9.000;2023-02-08T01:09:43;97378.66;;;-4.77;91.12
56038;BME280;41907;47.848;9.000;2023-02-08T01:12:09;97373.78;;;-4.80;91.34
56038;BME280;41907;47.848;9.000;2023-02-08T01:14:36;97381.63;;;-4.89;91.47
56038;BME280;41907;47.848;9.000;2023-02-08T01:17:03;97370.88;;;-4.85;91.65
56038;BME280;41907;47.848;9.000;2023-02-08T01:19:28;97359.19;;;-4.90;91.57
56038;BME280;41907;47.848;9.000;2023-02-08T01:21:54;97362.75;;;-4.91;91.56
56038;BME280;41907;47.848;9.000;2023-02-08T01:24:19;97357.28;;;-4.96;91.49
56038;BME280;41907;47.848;9.000;2023-02-08T01:26:45;97362.31;;;-4.94;91.00
56038;BME280;41907;47.848;9.000;2023-02-08T01:29:10;97359.22;;;-4.98;91.39
56038;BME280;41907;47.848;9.000;2023-02-08T01:31:38;97361.38;;;-5.01;91.18
56038;BME280;41907;47.848;9.000;2023-02-08T01:34:04;97364.78;;;-5.01;91.45
56038;BME280;41907;47.848;9.000;2023-02-08T01:36:31;97358.94;;;-5.03;91.59
56038;BME280;41907;47.848;9.000;2023-02-08T01:38:58;97360.72;;;-5.03;91.08
56038;BME280;41907;47.848;9.000;2023-02-08T01:41:26;97354.53;;;-5.02;90.27
56038;BME280;41907;47.848;9.000;2023-02-08T01:44:05;97362.53;;;-5.04;90.34
56038;BME280;41907;47.848;9.000;2023-02-08T01:46:32;97343.00;;;-5.08;90.53
56038;BME280;41907;47.848;9.000;2023-02-08T01:49:03;97355.69;;;-5.05;89.58
56038;BME280;41907;47.848;9.000;2023-02-08T01:51:34;97358.78;;;-5.09;89.76
56038;BME280;41907;47.848;9.000;2023-02-08T01:54:04;97353.13;;;-5.13;90.14
56038;BME280;41907;47.848;9.000;2023-02-08T01:56:33;97354.09;;;-5.14;90.13
56038;BME280;41907;47.848;9.000;2023-02-08T01:59:02;97355.09;;;-5.15;89.29
56038;BME280;41907;47.848;9.000;2023-02-08T02:01:30;97349.06;;;-5.15;89.16
56038;BME280;41907;47.848;9.000;2023-02-08T02:03:57;97342.41;;;-5.18;88.87
56038;BME280;41907;47.848;9.000;2023-02-08T02:06:28;97347.13;;;-5.13;88.93
56038;BME280;41907;47.848;9.000;2023-02-08T02:09:04;97344.50;;;-5.13;88.57
56038;BME280;41907;47.848;9.000;2023-02-08T02:11:33;97349.06;;;-5.15;88.28
56038;BME280;41907;47.848;9.000;2023-02-08T02:13:59;97347.13;;;-5.13;88.26
56038;BME280;41907;47.848;9.000;2023-02-08T02:16:25;97346.78;;;-5.18;88.58
56038;BME280;41907;47.848;9.000;2023-02-08T02:18:50;97350.09;;;-5.25;88.76
56038;BME280;41907;47.848;9.000;2023-02-08T02:29:30;97341.31;;;-5.23;88.87
56038;BME280;41907;47.848;9.000;2023-02-08T02:35:06;97334.50;;;-5.33;88.87
56038;BME280;41907;47.848;9.000;2023-02-08T02:37:33;97330.78;;;-5.30;88.45
56038;BME280;41907;47.848;9.000;2023-02-08T02:42:55;97337.13;;;-5.33;88.30
56038;BME280;41907;47.848;9.000;2023-02-08T02:48:31;97344.44;;;-5.36;88.21
56038;BME280;41907;47.848;9.000;2023-02-08T02:51:13;97338.63;;;-5.38;88.70
56038;BME280;41907;47.848;9.000;2023-02-08T02:53:53;97339.22;;;-5.36;88.18
56038;BME280;41907;47.848;9.000;2023-02-08T02:56:27;97343.81;;;-5.38;88.12
56038;BME280;41907;47.848;9.000;2023-02-08T02:58:57;97346.91;;;-5.43;88.86
56038;BME280;41907;47.848;9.000;2023-02-08T03:01:23;97344.00;;;-5.48;88.72
56038;BME280;41907;47.848;9.000;2023-02-08T03:03:51;97334.75;;;-5.50;89.06
56038;BME280;41907;47.848;9.000;2023-02-08T03:09:11;97339.63;;;-5.55;89.15
56038;BME280;41907;47.848;9.000;2023-02-08T03:11:55;97339.31;;;-5.60;89.68
56038;BME280;41907;47.848;9.000;2023-02-08T03:17:28;97337.22;;;-5.57;89.11
56038;BME280;41907;47.848;9.000;2023-02-08T03:22:32;97324.88;;;-5.63;89.15
56038;BME280;41907;47.848;9.000;2023-02-08T03:25:17;97335.41;;;-5.65;89.26
56038;BME280;41907;47.848;9.000;2023-02-08T03:27:57;97332.00;;;-5.65;89.60
56038;BME280;41907;47.848;9.000;2023-02-08T03:30:40;97327.63;;;-5.65;89.54
56038;BME280;41907;47.848;9.000;2023-02-08T03:33:28;97325.84;;;-5.64;89.66
56038;BME280;41907;47.848;9.000;2023-02-08T03:38:34;97324.88;;;-5.63;89.45
56038;BME280;41907;47.848;9.000;2023-02-08T03:41:03;97319.66;;;-5.63;89.44
56038;BME280;41907;47.848;9.000;2023-02-08T03:43:37;97316.25;;;-5.64;89.17
56038;BME280;41907;47.848;9.000;2023-02-08T03:46:20;97306.66;;;-5.63;89.50
56038;BME280;41907;47.848;9.000;2023-02-08T03:48:54;97313.66;;;-5.64;89.03
56038;BME280;41907;47.848;9.000;2023-02-08T03:51:20;97306.22;;;-5.67;89.65
56038;BME280;41907;47.848;9.000;2023-02-08T03:53:50;97304.41;;;-5.66;89.53
56038;BME280;41907;47.848;9.000;2023-02-08T03:56:29;97306.22;;;-5.67;89.53
56038;BME280;41907;47.848;9.000;2023-02-08T03:59:01;97302.00;;;-5.68;89.33
56038;BME280;41907;47.848;9.000;2023-02-08T04:04:36;97291.59;;;-5.68;89.17
56038;BME280;41907;47.848;9.000;2023-02-08T04:07:04;97288.19;;;-5.68;89.08
56038;BME280;41907;47.848;9.000;2023-02-08T04:09:29;97287.53;;;-5.70;89.52
56038;BME280;41907;47.848;9.000;2023-02-08T04:11:54;97280.03;;;-5.65;88.76
56038;BME280;41907;47.848;9.000;2023-02-08T04:14:20;97276.81;;;-5.67;89.12
56038;BME280;41907;47.848;9.000;2023-02-08T04:16:45;97279.75;;;-5.70;89.12
56038;BME280;41907;47.848;9.000;2023-02-08T04:19:10;97287.38;;;-5.69;89.31
56038;BME280;41907;47.848;9.000;2023-02-08T04:21:36;97292.25;;;-5.74;89.97
56038;BME280;41907;47.848;9.000;2023-02-08T04:24:01;97281.03;;;-5.74;89.29
56038;BME280;41907;47.848;9.000;2023-02-08T04:26:26;97275.56;;;-5.79;89.33
56038;BME280;41907;47.848;9.000;2023-02-08T04:28:52;97282.38;;;-5.78;89.56
56038;BME280;41907;47.848;9.000;2023-02-08T04:31:17;97275.72;;;-5.81;89.89
56038;BME280;41907;47.848;9.000;2023-02-08T04:33:43;97283.81;;;-5.84;89.65
56038;BME280;41907;47.848;9.000;2023-02-08T04:36:08;97277.81;;;-5.84;89.64
56038;BME280;41907;47.848;9.000;2023-02-08T04:38:34;97274.41;;;-5.85;89.41
56038;BME280;41907;47.848;9.000;2023-02-08T04:41:00;97279.59;;;-5.85;89.55
56038;BME280;41907;47.848;9.000;2023-02-08T04:43:25;97282.69;;;-5.81;89.37
56038;BME280;41907;47.848;9.000;2023-02-08T04:45:51;97283.66;;;-5.82;89.36
56038;BME280;41907;47.848;9.000;2023-02-08T04:48:16;97278.00;;;-5.86;89.65
56038;BME280;41907;47.848;9.000;2023-02-08T04:50:42;97287.13;;;-5.90;89.74
56038;BME280;41907;47.848;9.000;2023-02-08T04:53:07;97278.03;;;-5.94;89.42
56038;BME280;41907;47.848;9.000;2023-02-08T04:55:33;97281.94;;;-5.90;89.23
56038;BME280;41907;47.848;9.000;2023-02-08T04:57:59;97278.03;;;-5.94;89.06
56038;BME280;41907;47.848;9.000;2023-02-08T05:00:24;97279.84;;;-5.94;89.33
56038;BME280;41907;47.848;9.000;2023-02-08T05:02:56;97275.78;;;-5.97;89.36
56038;BME280;41907;47.848;9.000;2023-02-08T05:05:24;97278.56;;;-5.98;89.09
56038;BME280;41907;47.848;9.000;2023-02-08T05:07:49;97275.47;;;-6.02;89.37
56038;BME280;41907;47.848;9.000;2023-02-08T05:10:15;97270.63;;;-6.05;89.87
56038;BME280;41907;47.848;9.000;2023-02-08T05:12:40;97270.94;;;-6.08;89.89
56038;BME280;41907;47.848;9.000;2023-02-08T05:15:06;97264.94;;;-6.09;90.08
56038;BME280;41907;47.848;9.000;2023-02-08T05:17:31;97265.09;;;-6.10;90.36
56038;BME280;41907;47.848;9.000;2023-02-08T05:19:57;97267.69;;;-6.10;90.14
56038;BME280;41907;47.848;9.000;2023-02-08T05:22:22;97260.41;;;-6.07;89.82
56038;BME280;41907;47.848;9.000;2023-02-08T05:24:47;97259.59;;;-6.07;90.20
56038;BME280;41907;47.848;9.000;2023-02-08T05:27:13;97255.66;;;-6.03;89.97
56038;BME280;41907;47.848;9.000;2023-02-08T05:29:38;97255.34;;;-6.00;89.51
56038;BME280;41907;47.848;9.000;2023-02-08T05:32:04;97254.69;;;-6.02;89.97
56038;BME280;41907;47.848;9.000;2023-02-08T05:34:29;97263.16;;;-6.08;90.36
56038;BME280;41907;47.848;9.000;2023-02-08T05:36:54;97254.38;;;-6.07;90.08
56038;BME280;41907;47.848;9.000;2023-02-08T05:39:20;97263.16;;;-6.08;90.50
56038;BME280;41907;47.848;9.000;2023-02-08T05:41:45;97273.22;;;-6.05;90.37
56038;BME280;41907;47.848;9.000;2023-02-08T05:44:10;97271.44;;;-6.05;90.33
56038;BME280;41907;47.848;9.000;2023-02-08T05:46:36;97266.41;;;-6.06;91.11
56038;BME280;41907;47.848;9.000;2023-02-08T05:49:01;97258.59;;;-6.06;90.79
56038;BME280;41907;47.848;9.000;2023-02-08T05:51:26;97273.84;;;-6.03;90.72
56038;BME280;41907;47.848;9.000;2023-02-08T05:53:52;97278.75;;;-6.08;91.30
56038;BME280;41907;47.848;9.000;2023-02-08T05:56:17;97282.31;;;-6.09;91.69
56038;BME280;41907;47.848;9.000;2023-02-08T05:58:42;97281.81;;;-6.13;91.99
56038;BME280;41907;47.848;9.000;2023-02-08T06:01:09;97274.53;;;-6.17;92.25
56038;BME280;41907;47.848;9.000;2023-02-08T06:03:36;97284.59;;;-6.14;92.72
56038;BME280;41907;47.848;9.000;2023-02-08T06:06:01;97292.22;;;-6.21;92.79
56038;BME280;41907;47.848;9.000;2023-02-08T06:08:27;97288.31;;;-6.17;92.55
56038;BME280;41907;47.848;9.000;2023-02-08T06:10:52;97298.41;;;-6.14;92.50
56038;BME280;41907;47.848;9.000;2023-02-08T06:13:17;97296.94;;;-6.16;93.08
56038;BME280;41907;47.848;9.000;2023-02-08T06:15:43;97302.94;;;-6.16;93.46
56038;BME280;41907;47.848;9.000;2023-02-08T06:18:09;97297.25;;;-6.19;93.77
56038;BME280;41907;47.848;9.000;2023-02-08T06:20:35;97305.34;;;-6.22;93.72
56038;BME280;41907;47.848;9.000;2023-02-08T06:23:00;97299.84;;;-6.19;94.01
56038;BME280;41907;47.848;9.000;2023-02-08T06:25:26;97305.03;;;-6.19;94.03
56038;BME280;41907;47.848;9.000;2023-02-08T06:27:51;97306.81;;;-6.20;94.41
56038;BME280;41907;47.848;9.000;2023-02-08T06:30:16;97304.38;;;-6.21;94.29
56038;BME280;41907;47.848;9.000;2023-02-08T06:32:42;97293.03;;;-6.20;94.44
56038;BME280;41907;47.848;9.000;2023-02-08T06:35:07;97291.75;;;-6.16;93.90
56038;BME280;41907;47.848;9.000;2023-02-08T06:37:33;97290.13;;;-6.17;94.39
56038;BME280;41907;47.848;9.000;2023-02-08T06:39:58;97288.16;;;-6.15;94.53
56038;BME280;41907;47.848;9.000;2023-02-08T06:42:26;97293.69;;;-6.18;94.32
56038;BME280;41907;47.848;9.000;2023-02-08T06:44:51;97292.06;;;-6.19;94.86
56038;BME280;41907;47.848;9.000;2023-02-08T06:47:19;97297.56;;;-6.06;97.08
56038;BME280;41907;47.848;9.000;2023-02-08T06:49:45;97300.00;;;-5.57;96.52
56038;BME280;41907;47.848;9.000;2023-02-08T06:52:10;97289.03;;;-5.84;93.73
56038;BME280;41907;47.848;9.000;2023-02-08T06:54:35;97295.44;;;-5.94;94.25
56038;BME280;41907;47.848;9.000;2023-02-08T06:57:01;97288.13;;;-5.99;94.23
56038;BME280;41907;47.848;9.000;2023-02-08T06:59:26;97296.25;;;-6.02;94.49
56038;BME280;41907;47.848;9.000;2023-02-08T07:01:51;97296.09;;;-6.01;94.68
56038;BME280;41907;47.848;9.000;2023-02-08T07:04:17;97295.75;;;-5.97;94.69
56038;BME280;41907;47.848;9.000;2023-02-08T07:06:42;97295.59;;;-5.88;94.05
56038;BME280;41907;47.848;9.000;2023-02-08T07:09:08;97288.63;;;-5.65;94.09
56038;BME280;41907;47.848;9.000;2023-02-08T07:11:33;97293.97;;;-4.65;90.53
56038;BME280;41907;47.848;9.000;2023-02-08T07:13:59;97290.03;;;-3.71;84.63
56038;BME280;41907;47.848;9.000;2023-02-08T07:16:24;97283.16;;;-2.78;nan
56038;BME280;41907;47.848;9.000;2023-02-08T07:18:49;97289.72;;;-2.18;75.42
56038;BME280;41907;47.848;9.000;2023-02-08T07:21:15;97287.44;;;-1.31;72.30
56038;BME280;41907;47.848;9.000;2023-02-08T07:23:40;97286.09;;;-0.40;67.69
56038;BME280;41907;47.848;9.000;2023-02-08T07:26:08;97287.69;;;0.21;64.51
56038;BME280;41907;47.848;9.000;2023-02-08T07:28:34;97285.47;;;0.44;62.41
56038;BME280;41907;47.848;9.000;2023-02-08T07:31:07;97286.44;;;1.45;58.83
56038;BME280;41907;47.848;9.000;2023-02-08T07:33:32;97294.03;;;1.92;56.32
56038;BME280;41907;47.848;9.000;2023-02-08T07:35:58;97286.50;;;2.99;52.78
56038;BME280;41907;47.848;9.000;2023-02-08T07:38:23;97290.31;;;3.63;51.19
56038;BME280;41907;47.848;9.000;2023-02-08T07:40:48;97296.84;;;4.61;47.26
56038;BME280;41907;47.848;9.000;2023-02-08T07:43:14;97297.22;;;5.04;45.90
56038;BME280;41907;47.848;9.000;2023-02-08T07:45:39;97300.50;;;4.13;46.62
56038;BME280;41907;47.848;9.000;2023-02-08T07:48:05;97303.41;;;4.70;46.12
56038;BME280;41907;47.848;9.000;2023-02-08T07:50:30;97302.81;;;4.56;46.25
56038;BME280;41907;47.848;9.000;2023-02-08T07:52:56;97300.38;;;5.58;43.99
56038;BME280;41907;47.848;9.000;2023-02-08T07:55:22;97307.47;;;6.14;42.21
56038;BME280;41907;47.848;9.000;2023-02-08T07:57:48;97305.78;;;5.63;42.34
56038;BME280;41907;47.848;9.000;2023-02-08T08:00:16;97303.78;;;5.42;42.76
56038;BME280;41907;47.848;9.000;2023-02-08T08:02:42;97317.28;;;6.30;41.37
56038;BME280;41907;47.848;9.000;2023-02-08T08:05:08;97312.84;;;6.69;39.42
56038;BME280;41907;47.848;9.000;2023-02-08T08:07:34;97314.78;;;6.07;40.67
56038;BME280;41907;47.848;9.000;2023-02-08T08:10:00;97311.38;;;6.62;39.80
56038;BME280;41907;47.848;9.000;2023-02-08T08:12:25;97313.06;;;5.84;40.90
56038;BME280;41907;47.848;9.000;2023-02-08T08:14:50;97316.59;;;5.90;40.68
56038;BME280;41907;47.848;9.000;2023-02-08T08:17:16;97317.13;;;6.20;40.31
56038;BME280;41907;47.848;9.000;2023-02-08T08:19:42;97322.94;;;6.72;39.00
56038;BME280;41907;47.848;9.000;2023-02-08T08:22:07;97322.94;;;5.89;40.51
56038;BME280;41907;47.848;9.000;2023-02-08T08:24:32;97327.66;;;6.32;39.66
56038;BME280;41907;47.848;9.000;2023-02-08T08:27:00;97319.59;;;6.10;39.97
56038;BME280;41907;47.848;9.000;2023-02-08T08:29:26;97321.78;;;6.13;39.96
56038;BME280;41907;47.848;9.000;2023-02-08T08:31:51;97317.34;;;5.45;41.33
56038;BME280;41907;47.848;9.000;2023-02-08T08:34:17;97312.44;;;4.74;42.68
56038;BME280;41907;47.848;9.000;2023-02-08T08:36:42;97314.53;;;4.37;43.44
56038;BME280;41907;47.848;9.000;2023-02-08T08:39:08;97310.88;;;4.61;43.32
56038;BME280;41907;47.848;9.000;2023-02-08T08:41:34;97310.38;;;4.99;43.01
56038;BME280;41907;47.848;9.000;2023-02-08T08:44:01;97321.22;;;4.51;43.69
56038;BME280;41907;47.848;9.000;2023-02-08T08:46:26;97306.81;;;5.34;42.18
56038;BME280;41907;47.848;9.000;2023-02-08T08:48:52;97294.22;;;5.97;40.95
56038;BME280;41907;47.848;9.000;2023-02-08T08:51:17;97290.28;;;4.28;43.52
56038;BME280;41907;47.848;9.000;2023-02-08T08:53:42;97289.16;;;4.59;43.32
56038;BME280;41907;47.848;9.000;2023-02-08T08:56:08;97287.09;;;5.13;42.71
56038;BME280;41907;47.848;9.000;2023-02-08T08:58:33;97284.84;;;5.78;42.02
56038;BME280;41907;47.848;9.000;2023-02-08T09:00:59;97286.13;;;6.38;40.45
56038;BME280;41907;47.848;9.000;2023-02-08T09:03:26;97293.97;;;6.16;40.29
56038;BME280;41907;47.848;9.000;2023-02-08T09:05:52;97286.13;;;6.76;39.15
56038;BME280;41907;47.848;9.000;2023-02-08T09:08:17;97294.31;;;6.19;39.63
56038;BME280;41907;47.848;9.000;2023-02-08T09:10:42;97289.44;;;6.11;39.57
56038;BME280;41907;47.848;9.000;2023-02-08T09:13:08;97289.59;;;6.77;39.50
56038;BME280;41907;47.848;9.000;2023-02-08T09:15:37;97288.31;;;7.23;38.35
56038;BME280;41907;47.848;9.000;2023-02-08T09:18:03;97293.66;;;6.84;38.78
56038;BME280;41907;47.848;9.000;2023-02-08T09:20:28;97284.09;;;7.27;37.93
56038;BME280;41907;47.848;9.000;2023-02-08T09:22:54;97287.38;;;7.34;37.95
56038;BME280;41907;47.848;9.000;2023-02-08T09:25:19;97294.91;;;6.77;38.48
56038;BME280;41907;47.848;9.000;2023-02-08T09:27:44;97293.50;;;7.13;38.45
56038;BME280;41907;47.848;9.000;2023-02-08T09:30:10;97298.38;;;7.21;37.20
56038;BME280;41907;47.848;9.000;2023-02-08T09:32:35;97307.00;;;7.55;36.23
56038;BME280;41907;47.848;9.000;2023-02-08T09:35:04;97301.16;;;7.58;36.73
56038;BME280;41907;47.848;9.000;2023-02-08T09:37:29;97294.06;;;7.63;36.53
56038;BME280;41907;47.848;9.000;2023-02-08T09:39:54;97308.41;;;7.89;35.74
56038;BME280;41907;47.848;9.000;2023-02-08T09:47:19;97304.41;;;8.50;35.19
56038;BME280;41907;47.848;9.000;2023-02-08T09:52:54;97312.19;;;7.98;35.23
56038;BME280;41907;47.848;9.000;2023-02-08T09:55:36;97303.34;;;8.19;34.61
56038;BME280;41907;47.848;9.000;2023-02-08T09:58:12;97301.53;;;9.04;34.19
56038;BME280;41907;47.848;9.000;2023-02-08T10:00:43;97300.75;;;8.62;34.81
56038;BME280;41907;47.848;9.000;2023-02-08T10:03:22;97299.81;;;8.83;34.38
56038;BME280;41907;47.848;9.000;2023-02-08T10:05:49;97309.84;;;8.71;34.83
56038;BME280;41907;47.848;9.000;2023-02-08T10:08:15;97305.09;;;8.36;34.64
56038;BME280;41907;47.848;9.000;2023-02-08T10:16:11;97305.41;;;7.54;36.61
56038;BME280;41907;47.848;9.000;2023-02-08T10:18:45;97301.72;;;7.87;35.89
56038;BME280;41907;47.848;9.000;2023-02-08T10:29:54;97299.53;;;7.08;37.18
56038;BME280;41907;47.848;9.000;2023-02-08T10:32:42;97311.66;;;7.69;35.41
56038;BME280;41907;47.848;9.000;2023-02-08T10:35:24;97297.28;;;7.17;35.58
56038;BME280;41907;47.848;9.000;2023-02-08T10:37:50;97299.41;;;7.20;36.71
56038;BME280;41907;47.848;9.000;2023-02-08T10:43:18;97293.88;;;8.66;34.83
56038;BME280;41907;47.848;9.000;2023-02-08T10:51:32;97284.84;;;7.98;35.29
56038;BME280;41907;47.848;9.000;2023-02-08T10:53:58;97287.84;;;7.53;35.62
56038;BME280;41907;47.848;9.000;2023-02-08T10:56:42;97283.97;;;7.65;35.72
56038;BME280;41907;47.848;9.000;2023-02-08T10:59:25;97277.47;;;7.51;35.77
56038;BME280;41907;47.848;9.000;2023-02-08T11:01:52;97281.53;;;7.32;36.15
56038;BME280;41907;47.848;9.000;2023-02-08T11:04:18;97276.84;;;6.95;36.00
56038;BME280;41907;47.848;9.000;2023-02-08T11:06:45;97278.84;;;7.80;36.02
56038;BME280;41907;47.848;9.000;2023-02-08T11:11:45;97273.78;;;7.52;35.51
56038;BME280;41907;47.848;9.000;2023-02-08T11:14:16;97264.56;;;8.23;34.69
56038;BME280;41907;47.848;9.000;2023-02-08T11:16:53;97261.63;;;9.09;34.11
56038;BME280;41907;47.848;9.000;2023-02-08T11:21:53;97266.59;;;8.38;34.43
56038;BME280;41907;47.848;9.000;2023-02-08T11:24:39;97258.38;;;8.45;34.37
56038;BME280;41907;47.848;9.000;2023-02-08T11:27:17;97248.22;;;8.37;34.83
56038;BME280;41907;47.848;9.000;2023-02-08T11:29:43;97252.38;;;8.65;35.10
56038;BME280;41907;47.848;9.000;2023-02-08T11:32:18;97245.13;;;7.81;35.20
56038;BME280;41907;47.848;9.000;2023-02-08T11:34:44;97248.31;;;7.56;36.02
56038;BME280;41907;47.848;9.000;2023-02-08T11:37:16;97244.16;;;7.38;36.35
56038;BME280;41907;47.848;9.000;2023-02-08T11:39:48;97252.69;;;7.99;35.53
56038;BME280;41907;47.848;9.000;2023-02-08T11:42:22;97239.41;;;7.67;35.97
56038;BME280;41907;47.848;9.000;2023-02-08T11:44:49;97247.94;;;8.01;35.61
56038;BME280;41907;47.848;9.000;2023-02-08T11:47:17;97234.75;;;8.53;35.74
56038;BME280;41907;47.848;9.000;2023-02-08T11:49:52;97240.81;;;8.39;35.36
56038;BME280;41907;47.848;9.000;2023-02-08T11:54:44;97242.31;;;7.39;36.84
56038;BME280;41907;47.848;9.000;2023-02-08T11:59:37;97238.94;;;7.48;36.47
56038;BME280;41907;47.848;9.000;2023-02-08T12:02:36;97235.44;;;7.70;36.21
56038;BME280;41907;47.848;9.000;2023-02-08T12:05:08;97236.78;;;7.19;37.20
56038;BME280;41907;47.848;9.000;2023-02-08T12:08:06;97226.13;;;7.67;37.15
56038;BME280;41907;47.848;9.000;2023-02-08T12:22:27;97214.16;;;7.11;37.68
56038;BME280;41907;47.848;9.000;2023-02-08T12:35:46;97200.22;;;6.99;39.00
56038;BME280;41907;47.848;9.000;2023-02-08T12:41:43;97176.69;;;6.59;40.88
56038;BME280;41907;47.848;9.000;2023-02-08T12:52:33;97176.09;;;5.46;43.25
56038;BME280;41907;47.848;9.000;2023-02-08T12:55:04;97164.13;;;4.99;44.37
56038;BME280;41907;47.848;9.000;2023-02-08T12:57:37;97158.47;;;4.27;45.75
56038;BME280;41907;47.848;9.000;2023-02-08T13:00:17;97173.03;;;3.36;48.93
56038;BME280;41907;47.848;9.000;2023-02-08T13:02:46;97165.78;;;3.31;50.21
56038;BME280;41907;47.848;9.000;2023-02-08T13:05:21;97167.44;;;3.56;50.70
56038;BME280;41907;47.848;9.000;2023-02-08T13:07:48;97156.00;;;3.85;49.38
56038;BME280;41907;47.848;9.000;2023-02-08T13:12:44;97149.34;;;3.06;51.74
56038;BME280;41907;47.848;9.000;2023-02-08T13:17:49;97139.50;;;2.83;53.45
56038;BME280;41907;47.848;9.000;2023-02-08T13:22:46;97147.94;;;3.04;52.52
56038;BME280;41907;47.848;9.000;2023-02-08T13:25:29;97134.88;;;2.97;51.84
56038;BME280;41907;47.848;9.000;2023-02-08T13:27:59;97140.84;;;3.04;52.67
56038;BME280;41907;47.848;9.000;2023-02-08T13:30:24;97134.44;;;3.00;54.88
56038;BME280;41907;47.848;9.000;2023-02-08T13:32:50;97125.16;;;2.68;53.09
56038;BME280;41907;47.848;9.000;2023-02-08T13:35:21;97127.72;;;2.56;54.99
56038;BME280;41907;47.848;9.000;2023-02-08T13:37:50;97125.84;;;2.75;54.22
56038;BME280;41907;47.848;9.000;2023-02-08T13:40:28;97129.66;;;2.79;53.42
56038;BME280;41907;47.848;9.000;2023-02-08T13:43:00;97126.44;;;2.77;53.74
56038;BME280;41907;47.848;9.000;2023-02-08T13:45:35;97129.13;;;2.58;55.29
56038;BME280;41907;47.848;9.000;2023-02-08T13:48:13;97124.97;;;2.51;55.67
56038;BME280;41907;47.848;9.000;2023-02-08T13:50:50;97123.75;;;2.65;54.72
56038;BME280;41907;47.848;9.000;2023-02-08T13:53:17;97130.06;;;2.64;55.28
56038;BME280;41907;47.848;9.000;2023-02-08T13:55:57;97117.84;;;2.70;54.80
56038;BME280;41907;47.848;9.000;2023-02-08T14:01:26;97126.47;;;2.58;56.30
56038;BME280;41907;47.848;9.000;2023-02-08T14:06:46;97129.38;;;2.69;55.90
56038;BME280;41907;47.848;9.000;2023-02-08T14:09:31;97132.78;;;2.57;55.15
56038;BME280;41907;47.848;9.000;2023-02-08T14:17:47;97131.66;;;2.35;56.59
56038;BME280;41907;47.848;9.000;2023-02-08T14:20:20;97127.25;;;2.29;57.53
56038;BME280;41907;47.848;9.000;2023-02-08T14:22:50;97136.97;;;2.29;57.36
56038;BME280;41907;47.848;9.000;2023-02-08T14:25:19;97124.41;;;2.31;57.85
56038;BME280;41907;47.848;9.000;2023-02-08T14:27:49;97130.28;;;2.14;57.26
56038;BME280;41907;47.848;9.000;2023-02-08T14:32:44;97125.34;;;2.18;59.47
56038;BME280;41907;47.848;9.000;2023-02-08T14:37:41;97120.78;;;2.61;56.95
56038;BME280;41907;47.848;9.000;2023-02-08T14:43:04;97133.47;;;2.53;53.46
56038;BME280;41907;47.848;9.000;2023-02-08T14:45:50;97136.25;;;2.21;53.98
56038;BME280;41907;47.848;9.000;2023-02-08T14:48:27;97139.47;;;2.42;53.75
56038;BME280;41907;47.848;9.000;2023-02-08T14:53:38;97139.78;;;2.15;54.91
56038;BME280;41907;47.848;9.000;2023-02-08T14:58:43;97142.47;;;2.09;56.37
56038;BME280;41907;47.848;9.000;2023-02-08T15:01:19;97132.38;;;2.06;55.47
56038;BME280;41907;47.848;9.000;2023-02-08T15:03:48;97137.34;;;1.96;56.21
56038;BME280;41907;47.848;9.000;2023-02-08T15:09:04;97153.44;;;1.63;57.10
56038;BME280;41907;47.848;9.000;2023-02-08T15:11:32;97139.06;;;1.65;56.44
56038;BME280;41907;47.848;9.000;2023-02-08T15:14:00;97142.72;;;1.64;56.74
56038;BME280;41907;47.848;9.000;2023-02-08T15:16:41;97146.00;;;1.60;57.48
56038;BME280;41907;47.848;9.000;2023-02-08T15:19:08;97153.09;;;1.59;58.55
56038;BME280;41907;47.848;9.000;2023-02-08T15:21:41;97151.97;;;1.48;62.87
56038;BME280;41907;47.848;9.000;2023-02-08T15:24:18;97147.00;;;1.34;65.83
56038;BME280;41907;47.848;9.000;2023-02-08T15:26:51;97148.69;;;1.28;67.99
56038;BME280;41907;47.848;9.000;2023-02-08T15:29:25;97144.09;;;1.17;69.14
56038;BME280;41907;47.848;9.000;2023-02-08T15:31:51;97146.50;;;0.94;69.94
56038;BME280;41907;47.848;9.000;2023-02-08T15:34:18;97145.16;;;0.78;71.10